Time;durP1;ratioP1;P1;durP2;ratioP2;P2;SDS_P1;SDS_P2;PMS_P1;PMS_P2;Temp;Humidity;BMP_temperature;BMP_pressure;BME280_temperature;BME280_humidity;BME280_pressure;Samples;Min_cycle;Max_cycle;Signal;HPM_P1;HPM_P2
2023/05/16 00:01:11;;;;;;;27.15;9.88;;;;;;;;;;6327245;22;20280;-92
2023/05/16 00:04:17;;;;;;;18.05;8.95;;;;;;;;;;6326265;22;20193;-92
2023/05/16 00:07:22;;;;;;;16.48;8.40;;;;;;;;;;6324124;22;20608;-92
2023/05/16 00:10:28;;;;;;;15.70;7.90;;;;;;;;;;6324243;22;20165;-92
2023/05/16 00:13:36;;;;;;;14.57;7.68;;;;;;;;;;6323647;22;20165;-92
2023/05/16 00:16:44;;;;;;;14.50;7.63;;;;;;;;;;6307935;22;20182;-90
2023/05/16 00:19:56;;;;;;;13.13;7.07;;;;;;;;;;6325679;22;20165;-91
2023/05/16 00:23:02;;;;;;;13.63;6.60;;;;;;;;;;6325205;22;20259;-91
2023/05/16 00:26:07;;;;;;;14.15;7.18;;;;;;;;;;6325281;22;20177;-91
2023/05/16 00:29:14;;;;;;;14.07;7.15;;;;;;;;;;6325315;22;20140;-94
2023/05/16 00:32:20;;;;;;;12.57;7.05;;;;;;;;;;6325925;22;20161;-90
2023/05/16 00:35:25;;;;;;;13.80;7.07;;;;;;;;;;6306518;22;20168;-88
2023/05/16 00:38:31;;;;;;;11.95;7.25;;;;;;;;;;6325182;22;20149;-91
2023/05/16 00:41:38;;;;;;;14.73;7.47;;;;;;;;;;6324141;22;20188;-90
2023/05/16 00:44:45;;;;;;;14.32;7.90;;;;;;;;;;6322806;22;20153;-94
2023/05/16 00:48:26;;;;;;;15.02;8.27;;;;;;;;;;6323448;22;20196;-92
2023/05/16 00:51:31;;;;;;;18.42;9.00;;;;;;;;;;6321622;22;20214;-93
2023/05/16 00:54:37;;;;;;;19.88;8.95;;;;;;;;;;6321758;22;20276;-91
2023/05/16 00:57:43;;;;;;;13.85;7.63;;;;;;;;;;6323933;22;20164;-90
2023/05/16 01:00:50;;;;;;;13.10;7.57;;;;;;;;;;6324521;22;20192;-90
2023/05/16 01:03:56;;;;;;;13.82;7.28;;;;;;;;;;6306479;22;20170;-91
2023/05/16 01:07:03;;;;;;;15.07;7.45;;;;;;;;;;6326652;22;20165;-90
2023/05/16 01:10:09;;;;;;;13.38;7.28;;;;;;;;;;6309337;22;20236;-90
2023/05/16 01:13:23;;;;;;;18.23;8.32;;;;;;;;;;6324149;22;20196;-93
2023/05/16 01:16:37;;;;;;;17.85;7.53;;;;;;;;;;6321756;22;20341;-92
2023/05/16 01:19:52;;;;;;;17.55;8.48;;;;;;;;;;6324297;22;20165;-92
2023/05/16 01:23:05;;;;;;;16.77;8.05;;;;;;;;;;6323579;22;20254;-92
2023/05/16 01:26:14;;;;;;;13.65;7.13;;;;;;;;;;6325770;22;20164;-90
2023/05/16 01:29:19;;;;;;;16.60;7.88;;;;;;;;;;6323425;22;20165;-89
2023/05/16 01:32:25;;;;;;;15.05;7.78;;;;;;;;;;6322211;22;20149;-90
2023/05/16 01:35:30;;;;;;;14.30;7.90;;;;;;;;;;6325243;22;20157;-90
2023/05/16 01:38:38;;;;;;;14.88;8.25;;;;;;;;;;6325134;22;20161;-90
2023/05/16 01:41:52;;;;;;;15.23;7.90;;;;;;;;;;6325546;22;20165;-91
2023/05/16 01:45:07;;;;;;;16.73;8.52;;;;;;;;;;6325835;22;20161;-88
2023/05/16 01:48:43;;;;;;;21.58;10.20;;;;;;;;;;6324772;22;20156;-91
2023/05/16 01:51:52;;;;;;;21.45;10.00;;;;;;;;;;6323773;22;20192;-91
2023/05/16 01:54:59;;;;;;;19.17;9.63;;;;;;;;;;6323925;22;20200;-90
2023/05/16 01:58:08;;;;;;;18.60;9.77;;;;;;;;;;6324418;22;20153;-90
2023/05/16 02:01:14;;;;;;;19.77;9.82;;;;;;;;;;6307424;22;20169;-88
2023/05/16 02:04:20;;;;;;;24.60;11.18;;;;;;;;;;6307353;22;20164;-91
2023/05/16 02:07:25;;;;;;;21.50;10.18;;;;;;;;;;6326775;22;20168;-92
2023/05/16 02:10:31;;;;;;;20.08;10.60;;;;;;;;;;6326843;22;20161;-92
2023/05/16 02:13:39;;;;;;;20.35;9.45;;;;;;;;;;6329242;22;20235;-91
2023/05/16 02:20:57;;;;;;;19.35;10.05;;;;;;;;;;6326347;22;20148;-90
2023/05/16 02:24:05;;;;;;;23.75;11.15;;;;;;;;;;6325171;22;20223;-91
2023/05/16 02:27:10;;;;;;;46.10;11.02;;;;;;;;;;6322390;22;20212;-90
2023/05/16 02:30:17;;;;;;;25.08;10.82;;;;;;;;;;6321918;22;20161;-90
2023/05/16 02:33:22;;;;;;;20.83;10.40;;;;;;;;;;6321011;22;21008;-90
2023/05/16 02:36:27;;;;;;;19.15;10.15;;;;;;;;;;6322564;22;20150;-90
2023/05/16 02:39:32;;;;;;;51.78;11.00;;;;;;;;;;6305787;22;20161;-88
2023/05/16 02:42:37;;;;;;;22.77;10.70;;;;;;;;;;6304262;22;20173;-90
2023/05/16 02:46:10;;;;;;;31.13;11.20;;;;;;;;;;6323681;22;20181;-90
2023/05/16 02:49:17;;;;;;;24.13;11.23;;;;;;;;;;6323031;22;20175;-89
2023/05/16 02:52:23;;;;;;;23.73;11.68;;;;;;;;;;6325718;22;20169;-92
2023/05/16 02:55:28;;;;;;;28.95;12.02;;;;;;;;;;6327047;22;20197;-92
2023/05/16 02:58:33;;;;;;;22.05;10.55;;;;;;;;;;6325603;22;20176;-92
2023/05/16 03:01:38;;;;;;;24.20;11.35;;;;;;;;;;6327794;22;20162;-92
2023/05/16 03:04:45;;;;;;;21.35;9.95;;;;;;;;;;6306552;22;20161;-91
2023/05/16 03:07:50;;;;;;;22.08;10.32;;;;;;;;;;6322919;22;20195;-92
2023/05/16 03:10:55;;;;;;;23.50;9.85;;;;;;;;;;6324594;22;20160;-93
2023/05/16 03:14:00;;;;;;;20.80;10.13;;;;;;;;;;6323582;22;20648;-90
2023/05/16 03:17:10;;;;;;;19.17;10.35;;;;;;;;;;6324534;22;20169;-91
2023/05/16 03:20:18;;;;;;;21.60;8.52;;;;;;;;;;6325290;22;20165;-92
2023/05/16 03:23:22;;;;;;;17.17;7.95;;;;;;;;;;6327385;22;20219;-90
2023/05/16 03:26:28;;;;;;;14.18;7.45;;;;;;;;;;6327332;22;20165;-90
2023/05/16 03:29:33;;;;;;;17.20;8.10;;;;;;;;;;6326156;22;20169;-88
2023/05/16 03:32:39;;;;;;;14.82;7.80;;;;;;;;;;6307726;22;20164;-91
2023/05/16 03:35:47;;;;;;;21.95;9.07;;;;;;;;;;6325224;22;20149;-91
2023/05/16 03:38:52;;;;;;;18.70;9.52;;;;;;;;;;6326697;22;20235;-92
2023/05/16 03:41:58;;;;;;;17.05;8.52;;;;;;;;;;6329574;22;20505;-90
2023/05/16 03:45:09;;;;;;;21.45;9.88;;;;;;;;;;6328241;22;20231;-90
2023/05/16 03:48:15;;;;;;;37.92;9.10;;;;;;;;;;6328936;22;20162;-90
2023/05/16 03:51:22;;;;;;;23.02;10.23;;;;;;;;;;6331536;22;20157;-89
2023/05/16 03:54:30;;;;;;;38.58;9.90;;;;;;;;;;6327354;22;20188;-91
2023/05/16 05:49:05;;;;;;;19.83;8.82;;;;;;;;;;6257725;22;20209;-88
2023/05/16 05:52:11;;;;;;;21.48;8.95;;;;;;;;;;6325073;22;20153;-90
2023/05/16 05:55:17;;;;;;;12.77;7.82;;;;;;;;;;6326092;22;20188;-88
2023/05/16 05:58:23;;;;;;;28.58;8.68;;;;;;;;;;6327047;22;20164;-90
2023/05/16 06:01:28;;;;;;;17.65;8.13;;;;;;;;;;6325531;22;20165;-90
2023/05/16 06:04:44;;;;;;;17.92;8.40;;;;;;;;;;6326025;22;20229;-90
2023/05/16 06:07:50;;;;;;;14.80;8.10;;;;;;;;;;6309722;22;20169;-90
2023/05/16 06:10:56;;;;;;;18.17;7.93;;;;;;;;;;6324947;22;20180;-90
2023/05/16 06:14:02;;;;;;;13.35;8.50;;;;;;;;;;6304822;22;20192;-90
2023/05/16 06:17:07;;;;;;;19.23;8.57;;;;;;;;;;6323433;22;20173;-91
2023/05/16 06:20:15;;;;;;;17.58;8.70;;;;;;;;;;6325003;22;20239;-90
2023/05/16 06:23:21;;;;;;;12.63;7.47;;;;;;;;;;6307228;22;20149;-91
2023/05/16 06:26:26;;;;;;;12.85;6.97;;;;;;;;;;6327159;22;20214;-90
2023/05/16 06:29:32;;;;;;;14.23;7.95;;;;;;;;;;6326139;22;20161;-91
2023/05/16 06:32:39;;;;;;;15.57;8.27;;;;;;;;;;6326850;22;20169;-92
2023/05/16 06:35:46;;;;;;;17.90;9.60;;;;;;;;;;6325439;22;20193;-89
2023/05/16 06:38:52;;;;;;;14.85;8.75;;;;;;;;;;6305910;22;20232;-90
2023/05/16 06:41:57;;;;;;;15.50;8.95;;;;;;;;;;6323646;22;20165;-91
2023/05/16 06:45:03;;;;;;;18.42;10.10;;;;;;;;;;6324633;22;20489;-90
2023/05/16 06:48:13;;;;;;;18.50;10.50;;;;;;;;;;6323655;22;20675;-91
2023/05/16 06:51:21;;;;;;;18.60;10.55;;;;;;;;;;6324092;22;20153;-91
2023/05/16 06:54:26;;;;;;;15.88;9.80;;;;;;;;;;6324888;22;20819;-93
2023/05/16 06:57:31;;;;;;;19.38;10.20;;;;;;;;;;6326875;22;20243;-88
2023/05/16 07:00:36;;;;;;;16.80;9.95;;;;;;;;;;6307604;22;20208;-91
2023/05/16 07:03:42;;;;;;;18.00;10.63;;;;;;;;;;6324085;22;20165;-91
2023/05/16 07:06:49;;;;;;;19.95;10.55;;;;;;;;;;6325043;22;20204;-94
2023/05/16 07:09:54;;;;;;;24.60;11.20;;;;;;;;;;6326032;22;20810;-89
2023/05/16 07:13:00;;;;;;;20.25;11.10;;;;;;;;;;6323729;22;20153;-89
2023/05/16 07:16:08;;;;;;;37.92;12.30;;;;;;;;;;6324751;22;20197;-92
2023/05/16 07:19:14;;;;;;;25.90;12.13;;;;;;;;;;6307951;22;20732;-90
2023/05/16 07:22:21;;;;;;;20.05;11.55;;;;;;;;;;6324295;22;20169;-91
2023/05/16 07:25:26;;;;;;;19.65;11.73;;;;;;;;;;6325204;22;20236;-93
2023/05/16 07:28:32;;;;;;;20.88;12.18;;;;;;;;;;6305876;22;20227;-93
2023/05/16 07:31:38;;;;;;;25.95;12.40;;;;;;;;;;6324724;22;20165;-92
2023/05/16 07:34:43;;;;;;;33.58;13.00;;;;;;;;;;6324566;22;20196;-91
2023/05/16 07:37:50;;;;;;;23.23;12.80;;;;;;;;;;6308012;22;20172;-92
2023/05/16 07:40:56;;;;;;;25.88;13.05;;;;;;;;;;6325075;22;20161;-92
2023/05/16 07:44:08;;;;;;;23.10;11.90;;;;;;;;;;6323751;22;20165;-90
2023/05/16 07:47:17;;;;;;;25.23;11.80;;;;;;;;;;6323933;22;20200;-91
2023/05/16 07:50:22;;;;;;;19.52;11.05;;;;;;;;;;6321536;22;20300;-90
2023/05/16 07:53:30;;;;;;;22.05;11.57;;;;;;;;;;6304923;22;20168;-90
2023/05/16 07:56:36;;;;;;;22.15;10.88;;;;;;;;;;6323880;22;20145;-92
2023/05/16 07:59:41;;;;;;;20.80;11.07;;;;;;;;;;6324420;22;20161;-90
2023/05/16 08:02:47;;;;;;;22.52;11.02;;;;;;;;;;6308397;22;20211;-93
2023/05/16 08:05:52;;;;;;;24.40;11.82;;;;;;;;;;6305445;22;20165;-91
2023/05/16 08:09:00;;;;;;;20.00;11.15;;;;;;;;;;6324861;22;20156;-89
2023/05/16 08:12:05;;;;;;;20.90;10.27;;;;;;;;;;6305378;22;20239;-91
2023/05/16 08:15:11;;;;;;;17.10;10.68;;;;;;;;;;6323046;22;20172;-92
2023/05/16 14:33:15;;;;;;;15.02;6.35;;;;;;;;;;6304124;22;20615;-90
2023/05/16 14:36:20;;;;;;;12.60;7.05;;;;;;;;;;6321228;22;20189;-89
2023/05/16 14:39:25;;;;;;;12.38;7.13;;;;;;;;;;6303275;22;20165;-91
2023/05/16 14:42:31;;;;;;;12.25;6.40;;;;;;;;;;6306752;22;20188;-89
2023/05/16 14:45:38;;;;;;;10.43;7.78;;;;;;;;;;6324810;22;20253;-91
2023/05/16 14:48:45;;;;;;;11.50;6.57;;;;;;;;;;6327184;22;20193;-90
2023/05/16 14:51:51;;;;;;;10.15;6.38;;;;;;;;;;6329528;22;20214;-89
2023/05/16 14:54:57;;;;;;;10.32;6.53;;;;;;;;;;6326153;22;20239;-90
2023/05/16 14:58:03;;;;;;;10.95;6.95;;;;;;;;;;6308739;22;20177;-92
2023/05/16 15:01:08;;;;;;;14.02;7.57;;;;;;;;;;6307803;22;20616;-91
2023/05/16 15:04:26;;;;;;;14.32;7.55;;;;;;;;;;6326269;22;20149;-89
2023/05/16 15:07:34;;;;;;;15.38;7.68;;;;;;;;;;6326158;22;20169;-89
2023/05/16 15:10:44;;;;;;;13.93;8.00;;;;;;;;;;6328172;22;20150;-90
2023/05/16 15:13:55;;;;;;;12.68;7.00;;;;;;;;;;6308786;22;20184;-89
2023/05/16 15:17:03;;;;;;;19.05;8.25;;;;;;;;;;6326626;22;20196;-90
2023/05/16 15:20:12;;;;;;;17.95;8.52;;;;;;;;;;6326574;22;20206;-91
2023/05/16 15:23:18;;;;;;;0.80;0.65;;;;;;;;;;6325134;22;20169;-90
2023/05/16 15:26:25;;;;;;;1.45;0.90;;;;;;;;;;6308788;22;20245;-90
2023/05/16 15:29:30;;;;;;;0.80;0.80;;;;;;;;;;6326460;22;20172;-91
2023/05/16 15:32:36;;;;;;;1.08;0.70;;;;;;;;;;6306574;22;20281;-91
2023/05/16 15:35:43;;;;;;;0.88;0.88;;;;;;;;;;6323547;22;20192;-91
2023/05/16 15:38:48;;;;;;;0.95;0.88;;;;;;;;;;6324125;22;20479;-91
2023/05/16 15:41:54;;;;;;;0.80;0.80;;;;;;;;;;6305163;22;20227;-91
2023/05/16 15:45:11;;;;;;;2.50;1.05;;;;;;;;;;6329388;22;20247;-92
2023/05/16 21:17:40;;;;;;;4.45;2.72;;;;;;;;;;6260813;22;20225;-87
2023/05/16 21:20:46;;;;;;;1.75;1.40;;;;;;;;;;6241810;23;20209;-91
2023/05/16 21:23:51;;;;;;;3.50;2.58;;;;;;;;;;6260781;22;20202;-92
2023/05/16 21:26:56;;;;;;;2.70;1.38;;;;;;;;;;6261091;23;20186;-90
2023/05/16 21:30:01;;;;;;;2.97;1.92;;;;;;;;;;6242904;22;20179;-91
2023/05/16 21:33:08;;;;;;;4.60;2.35;;;;;;;;;;6259783;22;20162;-90
2023/05/16 21:36:18;;;;;;;2.00;1.05;;;;;;;;;;6243058;22;20646;-88
2023/05/16 21:39:23;;;;;;;2.03;1.83;;;;;;;;;;6243094;22;20169;-91
2023/05/16 21:42:28;;;;;;;3.38;1.38;;;;;;;;;;6245118;22;20260;-91
2023/05/16 21:45:33;;;;;;;3.72;2.30;;;;;;;;;;6243082;22;20170;-89
2023/05/16 21:48:40;;;;;;;36.20;19.00;;;;;;;;;;6261048;23;20182;-91
2023/05/16 21:51:47;;;;;;;30.17;17.65;;;;;;;;;;6260521;23;20634;-90
2023/05/16 21:54:52;;;;;;;28.52;16.55;;;;;;;;;;6263503;22;20186;-90
2023/05/16 21:57:57;;;;;;;26.13;14.50;;;;;;;;;;6261029;22;20170;-92
2023/05/16 22:01:03;;;;;;;27.95;14.20;;;;;;;;;;6259937;22;20217;-90
2023/05/16 22:04:13;;;;;;;35.20;14.02;;;;;;;;;;6259651;22;20162;-91
2023/05/16 22:07:18;;;;;;;24.27;14.18;;;;;;;;;;6245186;22;20538;-88
2023/05/16 22:10:24;;;;;;;27.95;13.65;;;;;;;;;;6242481;22;20196;-91
2023/05/16 22:13:29;;;;;;;21.30;12.63;;;;;;;;;;6264282;22;20157;-91
2023/05/16 22:16:34;;;;;;;25.15;13.35;;;;;;;;;;6275581;22;20210;-94
2023/05/16 22:19:50;;;;;;;24.08;12.98;;;;;;;;;;6280564;22;20260;-88
2023/05/16 22:23:11;;;;;;;19.50;11.75;;;;;;;;;;6279941;22;20178;-93
2023/05/16 22:26:16;;;;;;;19.20;11.52;;;;;;;;;;6280025;22;20170;-91
2023/05/16 22:29:22;;;;;;;19.42;12.35;;;;;;;;;;6259000;22;20165;-89
2023/05/16 22:32:27;;;;;;;21.67;12.32;;;;;;;;;;6260004;22;20167;-89
2023/05/16 22:35:34;;;;;;;22.75;12.32;;;;;;;;;;6276735;22;20167;-92
2023/05/16 22:38:39;;;;;;;20.85;12.02;;;;;;;;;;6278932;22;20151;-89
2023/05/16 22:41:45;;;;;;;22.83;12.90;;;;;;;;;;6277644;22;20166;-90
2023/05/16 22:44:50;;;;;;;20.85;12.10;;;;;;;;;;6276803;22;20167;-91
2023/05/16 22:47:55;;;;;;;17.90;10.52;;;;;;;;;;6276592;22;20217;-90
2023/05/16 22:51:02;;;;;;;17.30;10.20;;;;;;;;;;6276635;22;20182;-91
2023/05/16 22:54:07;;;;;;;17.92;10.10;;;;;;;;;;6276263;22;20167;-91
2023/05/16 22:57:13;;;;;;;16.20;10.38;;;;;;;;;;6275118;22;20194;-91
2023/05/16 23:00:21;;;;;;;20.73;10.50;;;;;;;;;;6276349;22;20150;-91
2023/05/16 23:03:26;;;;;;;19.90;11.27;;;;;;;;;;6276052;22;20171;-90
2023/05/16 23:06:33;;;;;;;16.70;9.80;;;;;;;;;;6259549;22;20225;-92
2023/05/16 23:09:38;;;;;;;17.27;10.48;;;;;;;;;;6260136;22;20146;-90
2023/05/16 23:12:43;;;;;;;18.83;9.30;;;;;;;;;;6260258;22;20170;-92
2023/05/16 23:15:49;;;;;;;15.70;9.75;;;;;;;;;;6262725;23;20198;-92
2023/05/16 23:18:56;;;;;;;17.38;9.68;;;;;;;;;;6261760;22;20194;-89
2023/05/16 23:22:36;;;;;;;17.67;9.02;;;;;;;;;;6262064;22;20178;-90
2023/05/16 23:25:44;;;;;;;18.83;9.52;;;;;;;;;;6260050;22;20201;-91
2023/05/16 23:28:52;;;;;;;21.02;10.25;;;;;;;;;;6278147;22;20158;-91
2023/05/16 23:31:57;;;;;;;14.95;8.45;;;;;;;;;;6281015;22;20237;-90
2023/05/16 23:35:02;;;;;;;15.98;8.52;;;;;;;;;;6278836;22;20154;-91
2023/05/16 23:38:07;;;;;;;17.30;8.20;;;;;;;;;;6260870;22;20176;-91
2023/05/16 23:41:14;;;;;;;16.60;7.93;;;;;;;;;;6260696;22;20158;-90
2023/05/16 23:44:19;;;;;;;13.82;7.55;;;;;;;;;;6278727;22;20246;-92
2023/05/16 23:47:28;;;;;;;13.50;6.97;;;;;;;;;;6277578;22;20788;-90
2023/05/16 23:50:33;;;;;;;14.40;6.25;;;;;;;;;;6278738;22;20170;-91
2023/05/16 23:53:38;;;;;;;13.35;6.47;;;;;;;;;;6278851;22;20167;-91
2023/05/16 23:56:46;;;;;;;12.60;5.50;;;;;;;;;;6260077;22;20316;-91
2023/05/16 23:59:51;;;;;;;10.82;5.53;;;;;;;;;;6278087;22;20860;-92
